.
WxDataArchive / Data Records for 2009-06-13
2009-06-12 June 2009 2009-06-14

Data Records for Saturday, 13 June 2009

Time	Temp	Chill	HIndex	Humid	Dewpt	 Wind 	HiWind	WindDir	Rain 	Barom 
-----	----	-----	------	-----	-----	------	------	-------	-----	----- 
00:00	58.7	58.7	58.7	85	54.2	0	0	---	0.00	29.967 
00:05	58.4	58.4	58.4	86	54.2	0	0	---	0.00	29.967 
00:10	58.3	58.3	58.3	86	54.1	0	0	---	0.00	29.967 
00:15	58.1	58.1	58.1	86	53.9	0	0	---	0.00	29.963 
00:20	58.1	58.1	58.1	87	54.2	0	0	---	0.00	29.963 
00:25	58.0	58.0	58.0	87	54.1	0	0	---	0.00	29.963 
00:30	58.0	58.0	58.0	88	54.5	0	0	---	0.00	29.963 
00:35	57.8	57.8	57.8	88	54.3	0	0	---	0.00	29.963 
00:40	57.6	57.6	57.6	88	54.1	0	0	---	0.00	29.963 
00:45	57.5	57.5	57.5	88	54.0	0	0	---	0.00	29.960 
00:50	57.3	57.3	57.3	88	53.8	0	2	112	0.00	29.960 
00:55	57.2	57.2	57.2	89	54.0	0	0	---	0.00	29.960 
01:00	57.0	57.0	57.0	89	53.8	0	0	---	0.00	29.959 
01:05	57.0	57.0	57.0	90	54.1	0	0	---	0.00	29.959 
01:10	57.0	57.0	57.0	90	54.1	0	0	---	0.00	29.959 
01:15	56.9	56.9	56.9	90	54.0	0	0	---	0.00	29.957 
01:20	56.9	56.9	56.9	90	54.0	0	0	---	0.00	29.957 
01:25	56.7	56.7	56.7	90	53.8	0	0	---	0.00	29.957 
01:30	56.6	56.6	56.6	90	53.7	0	0	---	0.00	29.949 
01:35	56.5	56.5	56.5	90	53.6	0	0	---	0.00	29.949 
01:40	56.3	56.3	56.3	90	53.4	0	0	---	0.00	29.949 
01:45	56.2	56.2	56.2	90	53.3	0	0	---	0.00	29.950 
01:50	56.0	56.0	56.0	91	53.4	0	0	---	0.00	29.950 
01:55	56.0	56.0	56.0	91	53.4	0	0	---	0.00	29.950 
02:00	55.9	55.9	55.9	91	53.3	0	0	---	0.00	29.949 
02:05	55.7	55.7	55.7	91	53.1	0	0	---	0.00	29.949 
02:10	55.7	55.7	55.7	91	53.1	0	0	---	0.00	29.949 
02:15	55.7	55.7	55.7	91	53.1	0	0	---	0.00	29.951 
02:20	55.6	55.6	55.6	91	53.0	0	0	---	0.00	29.951 
02:25	55.4	55.4	55.4	92	53.1	0	0	---	0.00	29.951 
02:30	55.3	55.3	55.3	92	53.0	0	0	---	0.00	29.956 
02:35	55.4	55.4	55.4	92	53.1	0	0	---	0.00	29.956 
02:40	55.4	55.4	55.4	92	53.1	0	0	---	0.00	29.956 
02:45	55.4	55.4	55.4	92	53.1	0	0	---	0.00	29.956 
02:50	55.4	55.4	55.4	92	53.1	0	0	---	0.00	29.956 
02:55	55.4	55.4	55.4	92	53.1	0	0	---	0.00	29.956 
03:00	55.4	55.4	55.4	93	53.4	0	0	---	0.00	29.951 
03:05	55.4	55.4	55.4	93	53.4	0	0	---	0.00	29.951 
03:10	55.4	55.4	55.4	93	53.4	0	0	---	0.00	29.951 
03:15	55.4	55.4	55.4	93	53.4	0	0	---	0.00	29.951 
03:20	55.6	55.6	55.6	93	53.6	0	0	---	0.00	29.951 
03:25	55.7	55.7	55.7	93	53.7	0	0	---	0.00	29.951 
03:30	55.7	55.7	55.7	93	53.7	0	0	---	0.00	29.949 
03:35	55.9	55.9	55.9	93	53.9	0	0	---	0.00	29.949 
03:40	55.9	55.9	55.9	93	53.9	0	0	---	0.00	29.949 
03:45	56.0	56.0	56.0	93	54.0	0	0	---	0.00	29.956 
03:50	56.0	56.0	56.0	92	53.7	0	0	---	0.00	29.956 
03:55	56.2	56.2	56.2	92	53.9	0	0	---	0.00	29.956 
04:00	56.2	56.2	56.2	92	53.9	0	0	---	0.00	29.961 
04:05	56.3	56.3	56.3	92	54.0	0	0	---	0.00	29.961 
04:10	56.5	56.5	56.5	92	54.2	0	0	---	0.00	29.961 
04:15	56.6	56.6	56.6	91	54.0	0	0	---	0.00	29.959 
04:20	56.7	56.7	56.7	91	54.1	0	0	---	0.00	29.959 
04:25	56.9	56.9	56.9	91	54.3	0	0	---	0.00	29.959 
04:30	56.9	56.9	56.9	91	54.3	0	0	---	0.00	29.958 
04:35	57.0	57.0	57.0	90	54.1	0	0	---	0.00	29.958 
04:40	57.2	57.2	57.2	90	54.3	0	0	---	0.00	29.958 
04:45	57.2	57.2	57.2	90	54.3	0	0	---	0.00	29.964 
04:50	57.3	57.3	57.3	90	54.4	0	0	---	0.00	29.964 
04:55	57.3	57.3	57.3	89	54.1	0	0	---	0.00	29.964 
05:00	57.3	57.3	57.3	89	54.1	0	0	---	0.00	29.963 
05:05	57.3	57.3	57.3	88	53.8	0	0	---	0.00	29.963 
05:10	57.3	57.3	57.3	89	54.1	0	0	---	0.00	29.963 
05:15	57.3	57.3	57.3	88	53.8	0	0	---	0.00	29.963 
05:20	57.3	57.3	57.3	88	53.8	0	0	---	0.00	29.963 
05:25	57.3	57.3	57.3	88	53.8	0	0	---	0.00	29.963 
05:30	57.3	57.3	57.3	88	53.8	0	0	---	0.00	29.967 
05:35	57.3	57.3	57.3	88	53.8	0	0	---	0.00	29.967 
05:40	57.5	57.5	57.5	88	54.0	0	0	---	0.00	29.967 
05:45	57.5	57.5	57.5	88	54.0	0	0	---	0.00	29.971 
05:50	57.5	57.5	57.5	88	54.0	0	0	---	0.00	29.971 
05:55	57.5	57.5	57.5	88	54.0	0	0	---	0.00	29.971 
06:00	57.5	57.5	57.5	88	54.0	0	0	---	0.00	29.972 
06:05	57.3	57.3	57.3	88	53.8	0	0	---	0.00	29.972 
06:10	57.3	57.3	57.3	88	53.8	0	0	---	0.00	29.972 
06:15	57.3	57.3	57.3	88	53.8	0	0	---	0.00	29.976 
06:20	57.3	57.3	57.3	88	53.8	0	0	---	0.00	29.976 
06:25	57.3	57.3	57.3	88	53.8	0	0	---	0.00	29.976 
06:30	57.3	57.3	57.3	88	53.8	0	0	---	0.00	29.980 
06:35	57.5	57.5	57.5	88	54.0	0	0	---	0.00	29.980 
06:40	57.5	57.5	57.5	88	54.0	0	0	---	0.00	29.980 
06:45	57.6	57.6	57.6	88	54.1	0	0	---	0.00	29.985 
06:50	57.6	57.6	57.6	88	54.1	0	0	---	0.00	29.985 
06:55	57.8	57.8	57.8	88	54.3	0	0	---	0.00	29.985 
07:00	57.8	57.8	57.8	88	54.3	0	0	---	0.00	29.992 
07:05	58.0	58.0	58.0	88	54.5	0	0	---	0.00	29.992 
07:10	58.0	58.0	58.0	88	54.5	0	0	---	0.00	29.992 
07:15	58.1	58.1	58.1	88	54.6	0	0	---	0.00	29.994 
07:20	58.3	58.3	58.3	88	54.8	0	0	---	0.00	29.994 
07:25	58.4	58.4	58.4	87	54.5	0	0	---	0.00	29.994 
07:30	58.4	58.4	58.4	83	53.3	0	0	---	0.00	29.995 
07:35	58.7	58.7	58.7	81	52.9	0	0	---	0.00	29.995 
07:40	59.0	59.0	59.0	81	53.2	0	0	---	0.00	29.995 
07:45	59.5	59.5	59.5	81	53.7	0	0	---	0.00	29.995 
07:50	59.8	59.8	59.8	79	53.3	0	0	---	0.00	29.995 
07:55	60.1	60.1	60.1	76	52.5	0	0	---	0.00	29.995 
08:00	60.4	60.4	60.4	75	52.4	0	1	112	0.00	29.993 
08:05	60.7	60.7	60.7	74	52.4	0	1	112	0.00	29.993 
08:10	61.0	61.0	61.0	74	52.6	0	1	112	0.00	29.993 
08:15	61.0	61.0	61.0	73	52.3	0	1	112	0.00	29.995 
08:20	61.2	61.2	61.2	73	52.5	0	1	112	0.00	29.995 
08:25	61.3	61.3	61.3	76	53.7	0	1	112	0.00	29.995 
08:30	61.3	61.3	61.3	77	54.0	0	0	---	0.00	29.997 
08:35	61.2	61.2	61.2	77	53.9	0	0	---	0.00	29.997 
08:40	61.3	61.3	61.3	77	54.0	0	1	112	0.00	29.997 
08:45	61.5	61.5	61.5	76	53.9	0	1	112	0.00	29.996 
08:50	61.8	61.8	61.8	75	53.8	0	2	112	0.00	29.996 
08:55	62.0	62.0	62.0	73	53.2	0	2	112	0.00	29.996 
09:00	62.4	62.4	62.4	73	53.6	1	3	112	0.00	29.995 
09:05	63.2	63.2	63.2	71	53.6	1	3	112	0.00	29.995 
09:10	64.0	64.0	64.0	69	53.6	1	4	90	0.00	29.995 
09:15	64.5	64.5	64.5	68	53.7	1	3	90	0.00	29.997 
09:20	65.0	65.0	65.0	64	52.5	1	3	112	0.00	29.997 
09:25	65.6	65.6	65.6	65	53.5	1	3	112	0.00	29.997 
09:30	66.4	66.4	66.4	62	53.0	1	3	90	0.00	29.996 
09:35	67.1	67.1	67.1	61	53.2	1	3	90	0.00	29.996 
09:40	67.9	67.9	67.9	58	52.6	1	3	90	0.00	29.996 
09:45	68.3	68.3	68.3	58	52.9	2	4	90	0.00	29.994 
09:50	68.6	68.6	68.6	57	52.7	2	5	112	0.00	29.994 
09:55	68.6	68.6	68.6	56	52.3	2	6	68	0.00	29.994 
10:00	69.1	69.1	69.1	57	53.2	1	3	68	0.00	29.994 
10:05	69.9	69.9	69.9	53	52.0	1	4	90	0.00	29.994 
10:10	70.4	70.4	70.4	54	52.9	2	4	90	0.00	29.994 
10:15	70.6	70.6	70.6	51	51.6	2	5	112	0.00	29.995 
10:20	71.1	71.1	71.1	51	52.0	1	3	135	0.00	29.995 
10:25	71.6	71.6	71.6	51	52.5	1	4	90	0.00	29.995 
10:30	72.1	72.1	72.1	51	53.0	1	2	112	0.00	29.993 
10:35	72.7	72.7	72.7	47	51.3	1	3	90	0.00	29.993 
10:40	72.5	72.5	72.5	49	52.2	2	5	90	0.00	29.993 
10:45	72.3	72.3	72.3	43	48.5	2	5	90	0.00	29.993 
10:50	72.0	72.0	72.0	46	50.1	3	6	90	0.00	29.993 
10:55	71.8	71.8	71.8	43	48.1	2	4	90	0.00	29.993 
11:00	72.0	72.0	72.0	43	48.3	2	4	112	0.00	29.994 
11:05	72.3	72.3	72.3	44	49.2	2	5	90	0.00	29.994 
11:10	72.8	72.8	72.8	40	47.1	2	3	90	0.00	29.994 
11:15	73.3	73.3	73.3	40	47.5	2	6	90	0.00	29.991 
11:20	73.5	73.5	73.5	39	47.0	2	6	90	0.00	29.991 
11:25	74.0	74.0	74.0	40	48.1	2	5	90	0.00	29.991 
11:30	73.9	73.9	73.9	41	48.7	2	5	90	0.00	29.991 
11:35	73.7	73.7	73.7	40	47.9	2	5	90	0.00	29.991 
11:40	73.7	73.7	73.7	41	48.5	3	5	112	0.00	29.991 
11:45	74.0	74.0	74.0	39	47.5	2	5	90	0.00	29.987 
11:50	74.2	74.2	74.2	40	48.3	2	4	90	0.00	29.987 
11:55	74.2	74.2	74.2	38	46.9	2	4	112	0.00	29.987 
12:00	74.6	74.6	74.6	38	47.3	2	6	90	0.00	29.989 
12:05	74.9	74.9	74.9	40	48.9	2	6	90	0.00	29.989 
12:10	75.4	75.4	77.6	40	49.4	1	4	90	0.00	29.989 
12:15	75.4	75.4	77.4	36	46.6	1	3	90	0.00	29.986 
12:20	75.1	75.1	77.4	38	47.7	2	5	112	0.00	29.986 
12:25	74.2	74.2	74.2	39	47.6	2	4	112	0.00	29.986 
12:30	74.0	74.0	74.0	41	48.8	1	3	68	0.00	29.993 
12:35	74.2	74.2	74.2	41	49.0	1	4	90	0.00	29.993 
12:40	74.7	74.7	74.7	41	49.4	2	4	112	0.00	29.993 
12:45	74.6	74.6	74.6	41	49.3	2	5	90	0.00	29.993 
12:50	74.2	74.2	74.2	39	47.6	2	5	68	0.00	29.993 
12:55	73.7	73.7	73.7	39	47.2	2	4	112	0.00	29.993 
13:00	73.7	73.7	73.7	40	47.9	1	3	135	0.00	29.996 
13:05	73.7	73.7	73.7	41	48.5	2	4	135	0.00	29.996 
13:10	73.3	73.3	73.3	40	47.5	1	4	90	0.00	29.996 
13:15	73.3	73.3	73.3	43	49.4	2	4	90	0.00	29.998 
13:20	73.2	73.2	73.2	43	49.3	2	5	90	0.00	29.998 
13:25	73.5	73.5	73.5	46	51.4	1	4	68	0.00	29.998 
13:30	73.7	73.7	73.7	44	50.4	1	4	90	0.00	29.997 
13:35	73.7	73.7	73.7	41	48.5	2	5	135	0.00	29.997 
13:40	73.5	73.5	73.5	44	50.2	1	4	90	0.00	29.997 
13:45	73.3	73.3	73.3	43	49.4	1	2	90	0.00	30.000 
13:50	73.3	73.3	73.3	43	49.4	1	4	90	0.00	30.000 
13:55	73.2	73.2	73.2	40	47.4	2	6	90	0.00	30.000 
14:00	73.0	73.0	73.0	42	48.5	1	3	68	0.00	30.006 
14:05	73.0	73.0	73.0	43	49.2	0	2	68	0.00	30.006 
14:10	73.2	73.2	73.2	41	48.1	0	1	68	0.00	30.006 
14:15	73.2	73.2	73.2	45	50.6	1	5	90	0.00	30.010 
14:20	73.0	73.0	73.0	44	49.8	2	5	90	0.00	30.010 
14:25	73.0	73.0	73.0	43	49.2	1	5	90	0.00	30.010 
14:30	72.8	72.8	72.8	45	50.2	1	4	90	0.00	30.012 
14:35	72.8	72.8	72.8	46	50.8	1	3	90	0.00	30.012 
14:40	72.7	72.7	72.7	45	50.1	1	3	90	0.00	30.012 
14:45	72.5	72.5	72.5	45	49.9	1	3	90	0.00	30.015 
14:50	72.3	72.3	72.3	48	51.5	0	1	90	0.00	30.015 
14:55	71.8	71.8	71.8	49	51.6	0	2	90	0.00	30.015 
15:00	70.9	70.9	70.9	53	52.9	0	3	135	0.00	30.018 
15:05	70.1	70.1	70.1	55	53.2	1	3	112	0.00	30.018 
15:10	69.4	69.4	69.4	57	53.5	1	5	135	0.00	30.018 
15:15	68.9	68.9	68.9	58	53.5	1	5	90	0.00	30.024 
15:20	68.9	68.9	68.9	59	54.0	0	4	112	0.00	30.024 
15:25	68.8	68.8	68.8	58	53.4	1	4	112	0.00	30.024 
15:30	68.9	68.9	68.9	59	54.0	1	3	135	0.00	30.029 
15:35	68.9	68.9	68.9	58	53.5	1	7	112	0.00	30.029 
15:40	68.6	68.6	68.6	58	53.2	1	4	112	0.00	30.029 
15:45	68.3	68.3	68.3	59	53.4	1	4	135	0.00	30.029 
15:50	67.8	67.8	67.8	59	52.9	1	4	112	0.00	30.029 
15:55	67.4	67.4	67.4	61	53.5	1	2	112	0.00	30.029 
16:00	67.3	67.3	67.3	62	53.8	0	4	112	0.00	30.025 
16:05	66.9	66.9	66.9	61	53.0	1	5	90	0.00	30.025 
16:10	66.8	66.8	66.8	62	53.4	0	2	90	0.00	30.025 
16:15	66.6	66.6	66.6	63	53.6	1	3	90	0.00	30.016 
16:20	66.4	66.4	66.4	62	53.0	1	5	90	0.00	30.016 
16:25	66.3	66.3	66.3	63	53.3	2	5	112	0.00	30.016 
16:30	66.1	66.1	66.1	62	52.7	2	4	90	0.00	30.011 
16:35	66.3	66.3	66.3	62	52.9	2	4	90	0.00	30.011 
16:40	66.4	66.4	66.4	62	53.0	2	5	90	0.00	30.011 
16:45	66.6	66.6	66.6	62	53.2	1	5	112	0.00	30.006 
16:50	66.9	66.9	66.9	62	53.4	1	5	112	0.00	30.006 
16:55	67.1	67.1	67.1	63	54.1	1	4	112	0.00	30.006 
17:00	67.3	67.3	67.3	63	54.3	2	5	135	0.00	30.014 
17:05	67.3	67.3	67.3	63	54.3	2	4	90	0.00	30.014 
17:10	67.3	67.3	67.3	65	55.1	1	3	135	0.00	30.014 
17:15	67.3	67.3	67.3	65	55.1	1	4	112	0.00	30.014 
17:20	67.4	67.4	67.4	65	55.2	1	4	90	0.00	30.014 
17:25	67.3	67.3	67.3	66	55.5	2	5	90	0.00	30.014 
17:30	66.8	66.8	66.8	67	55.5	2	6	112	0.00	30.011 
17:35	66.6	66.6	66.6	68	55.7	1	4	90	0.00	30.011 
17:40	66.4	66.4	66.4	68	55.5	2	6	112	0.00	30.011 
17:45	66.3	66.3	66.3	69	55.8	1	2	68	0.00	30.008 
17:50	66.3	66.3	66.3	68	55.4	1	4	90	0.00	30.008 
17:55	66.3	66.3	66.3	67	55.0	2	5	90	0.00	30.008 
18:00	66.1	66.1	66.1	67	54.8	3	7	112	0.00	30.003 
18:05	66.1	66.1	66.1	67	54.8	3	6	112	0.00	30.003 
18:10	66.1	66.1	66.1	67	54.8	2	7	90	0.00	30.003 
18:15	66.1	66.1	66.1	68	55.2	2	4	112	0.00	30.001 
18:20	66.3	66.3	66.3	66	54.6	3	5	112	0.00	30.001 
18:25	66.3	66.3	66.3	67	55.0	2	5	112	0.00	30.001 
18:30	66.3	66.3	66.3	66	54.6	2	4	112	0.00	30.002 
18:35	66.3	66.3	66.3	66	54.6	2	5	112	0.00	30.002 
18:40	66.3	66.3	66.3	67	55.0	2	9	112	0.00	30.002 
18:45	66.3	66.3	66.3	68	55.4	2	5	112	0.00	30.000 
18:50	66.3	66.3	66.3	68	55.4	2	5	112	0.00	30.000 
18:55	66.1	66.1	66.1	67	54.8	2	5	90	0.00	30.000 
19:00	66.3	66.3	66.3	65	54.2	2	4	90	0.00	30.000 
19:05	66.3	66.3	66.3	64	53.7	2	6	90	0.00	30.000 
19:10	66.3	66.3	66.3	65	54.2	2	5	90	0.00	30.000 
19:15	66.3	66.3	66.3	65	54.2	2	4	112	0.00	29.998 
19:20	66.3	66.3	66.3	64	53.7	2	6	90	0.00	29.998 
19:25	66.4	66.4	66.4	65	54.3	2	4	112	0.00	29.998 
19:30	66.4	66.4	66.4	65	54.3	2	6	68	0.00	29.998 
19:35	66.3	66.3	66.3	66	54.6	1	4	68	0.00	29.998 
19:40	66.3	66.3	66.3	66	54.6	1	2	68	0.00	29.998 
19:45	66.3	66.3	66.3	65	54.2	1	5	68	0.00	29.998 
19:50	66.3	66.3	66.3	65	54.2	1	4	90	0.00	29.998 
19:55	66.3	66.3	66.3	65	54.2	1	3	90	0.00	29.998 
20:00	66.3	66.3	66.3	65	54.2	1	4	90	0.00	29.997 
20:05	66.3	66.3	66.3	66	54.6	1	3	112	0.00	29.997 
20:10	66.3	66.3	66.3	66	54.6	1	4	90	0.00	29.997 
20:15	66.3	66.3	66.3	67	55.0	1	4	68	0.00	29.994 
20:20	66.1	66.1	66.1	67	54.8	1	3	68	0.00	29.994 
20:25	66.1	66.1	66.1	67	54.8	1	5	68	0.00	29.994 
20:30	66.1	66.1	66.1	67	54.8	1	2	90	0.00	29.995 
20:35	66.0	66.0	66.0	67	54.7	1	3	90	0.00	29.995 
20:40	66.0	66.0	66.0	67	54.7	2	4	90	0.00	29.995 
20:45	65.8	65.8	65.8	68	54.9	1	3	90	0.00	29.995 
20:50	65.8	65.8	65.8	68	54.9	2	4	90	0.00	29.995 
20:55	65.6	65.6	65.6	69	55.1	2	4	90	0.00	29.995 
21:00	65.6	65.6	65.6	69	55.1	1	3	90	0.00	29.992 
21:05	65.5	65.5	65.5	69	55.1	1	4	68	0.00	29.992 
21:10	65.5	65.5	65.5	70	55.4	1	2	68	0.00	29.992 
21:15	65.3	65.3	65.3	71	55.6	1	3	68	0.00	29.985 
21:20	65.3	65.3	65.3	71	55.6	0	2	68	0.00	29.985 
21:25	65.2	65.2	65.2	71	55.6	0	2	68	0.00	29.985 
21:30	65.0	65.0	65.0	72	55.7	1	3	68	0.00	29.989 
21:35	64.8	64.8	64.8	72	55.6	1	4	68	0.00	29.989 
21:40	64.5	64.5	64.5	71	54.9	2	4	90	0.00	29.989 
21:45	64.2	64.2	64.2	70	54.2	1	3	90	0.00	29.992 
21:50	63.9	63.9	63.9	70	53.9	1	3	90	0.00	29.992 
21:55	63.7	63.7	63.7	70	53.7	0	2	90	0.00	29.992 
22:00	63.5	63.5	63.5	71	53.9	0	2	90	0.00	29.996 
22:05	63.2	63.2	63.2	71	53.6	0	1	90	0.00	29.996 
22:10	62.9	62.9	62.9	72	53.7	0	2	90	0.00	29.996 
22:15	62.6	62.6	62.6	73	53.8	0	1	90	0.00	29.994 
22:20	62.4	62.4	62.4	73	53.6	0	1	90	0.00	29.994 
22:25	62.1	62.1	62.1	74	53.7	0	0	---	0.00	29.994 
22:30	61.8	61.8	61.8	75	53.8	0	1	90	0.00	29.999 
22:35	61.6	61.6	61.6	75	53.6	0	1	90	0.00	29.999 
22:40	61.5	61.5	61.5	76	53.9	0	1	90	0.00	29.999 
22:45	61.3	61.3	61.3	76	53.7	0	1	90	0.00	29.998 
22:50	61.2	61.2	61.2	77	53.9	0	1	90	0.00	29.998 
22:55	61.0	61.0	61.0	77	53.7	0	0	---	0.00	29.998 
23:00	60.7	60.7	60.7	77	53.4	0	1	90	0.00	29.999 
23:05	60.5	60.5	60.5	78	53.6	0	2	90	0.00	29.999 
23:10	60.4	60.4	60.4	78	53.5	0	1	90	0.00	29.999 
23:15	60.2	60.2	60.2	79	53.7	0	1	90	0.00	29.994 
23:20	60.1	60.1	60.1	79	53.6	0	0	---	0.00	29.994 
23:25	59.9	59.9	59.9	80	53.7	0	0	---	0.00	29.994 
23:30	59.6	59.6	59.6	81	53.8	0	0	---	0.00	29.995 
23:35	59.5	59.5	59.5	81	53.7	0	1	90	0.00	29.995 
23:40	59.3	59.3	59.3	82	53.8	0	1	90	0.00	29.995 
23:45	59.3	59.3	59.3	82	53.8	0	1	90	0.00	29.994 
23:50	59.2	59.2	59.2	82	53.7	0	1	90	0.00	29.994 
23:55	59.2	59.2	59.2	82	53.7	0	1	90	0.00	29.994 

CoCoRaHS
IN-AL-39
A2 Web Hosting
Creative Commons License
GoDaddy
search engine by freefind advanced

loaded 2018-11-20 08:19:51 • last modified 2010-11-18 10:43:29
Privacy PolicyDisclaimer
• wx.awcolley.com is powered by PmWiki v.2002016 •
• all content (unless otherwise noted) © 2018 A W Colley